Time;durP1;ratioP1;P1;durP2;ratioP2;P2;SDS_P1;SDS_P2;PMS_P1;PMS_P2;Temp;Humidity;BMP_temperature;BMP_pressure;BME280_temperature;BME280_humidity;BME280_pressure;Samples;Min_cycle;Max_cycle;Signal;HPM_P1;HPM_P2
2022/12/28 00:01:42;;;;;;;9.10;5.40;;;;;;;2.37;100.00;99918.13;105712;1293;59097;-71
2022/12/28 00:04:09;;;;;;;12.20;5.90;;;;;;;2.36;100.00;99915.52;106091;1288;58801;-72
2022/12/28 00:06:35;;;;;;;10.10;5.70;;;;;;;2.34;100.00;99919.06;106070;1288;58964;-71
2022/12/28 00:09:02;;;;;;;7.80;5.20;;;;;;;2.33;100.00;99921.52;106098;1282;59023;-70
2022/12/28 00:11:28;;;;;;;9.00;5.60;;;;;;;2.31;100.00;99917.38;106049;1282;59233;-70
2022/12/28 00:13:56;;;;;;;8.90;6.20;;;;;;;2.30;100.00;99918.27;106082;1281;58935;-71
2022/12/28 00:16:30;;;;;;;9.00;6.30;;;;;;;2.28;100.00;99916.71;106070;1282;58815;-70
2022/12/28 00:18:58;;;;;;;8.60;5.20;;;;;;;2.27;100.00;99918.51;106049;1289;66771;-70
2022/12/28 00:21:26;;;;;;;11.50;6.50;;;;;;;2.25;100.00;99916.78;106076;1288;59955;-71
2022/12/28 00:23:55;;;;;;;11.00;6.90;;;;;;;2.24;100.00;99915.56;106072;1288;65026;-71
2022/12/28 00:26:21;;;;;;;9.30;6.00;;;;;;;2.24;100.00;99914.17;106040;1289;58984;-71
2022/12/28 00:28:48;;;;;;;8.10;5.10;;;;;;;2.22;100.00;99914.55;106076;1289;58992;-70
2022/12/28 00:31:15;;;;;;;13.90;6.70;;;;;;;2.22;100.00;99911.05;106059;1288;67123;-71
2022/12/28 00:33:41;;;;;;;9.40;5.90;;;;;;;2.20;100.00;99908.97;106032;1273;59965;-71
2022/12/28 00:36:10;;;;;;;11.90;6.50;;;;;;;2.19;100.00;99908.83;106061;1281;64036;-71
2022/12/28 00:38:37;;;;;;;8.70;6.00;;;;;;;2.17;100.00;99912.20;106058;1288;58854;-70
2022/12/28 00:41:04;;;;;;;9.90;5.70;;;;;;;2.16;100.00;99915.19;106097;1288;58837;-70
2022/12/28 00:43:31;;;;;;;13.50;6.70;;;;;;;2.15;100.00;99915.91;106076;1287;66890;-71
2022/12/28 00:45:58;;;;;;;10.40;6.30;;;;;;;2.15;100.00;99919.05;106091;1287;59071;-71
2022/12/28 00:48:24;;;;;;;9.20;6.10;;;;;;;2.15;100.00;99918.01;106058;1289;64767;-71
2022/12/28 00:50:50;;;;;;;11.40;6.00;;;;;;;2.15;100.00;99918.36;105699;1294;59170;-70
2022/12/28 00:53:16;;;;;;;9.80;5.50;;;;;;;2.15;100.00;99916.95;106031;1281;59043;-71
2022/12/28 00:55:42;;;;;;;9.50;6.10;;;;;;;2.13;100.00;99919.79;106051;1282;59446;-71
2022/12/28 00:58:08;;;;;;;10.00;5.30;;;;;;;2.13;100.00;99919.10;106075;1287;59309;-71
2022/12/28 01:00:38;;;;;;;13.70;6.40;;;;;;;2.12;100.00;99922.45;105893;1291;59220;-72
2022/12/28 01:03:05;;;;;;;10.90;6.40;;;;;;;2.12;100.00;99924.91;106075;1288;59017;-71
2022/12/28 01:05:31;;;;;;;12.30;7.20;;;;;;;2.11;100.00;99926.67;106090;1288;58783;-71
2022/12/28 01:07:58;;;;;;;9.20;5.60;;;;;;;2.09;100.00;99925.64;106064;1288;59200;-71
2022/12/28 01:10:24;;;;;;;11.00;6.20;;;;;;;2.08;100.00;99925.48;106051;1289;58948;-71
2022/12/28 01:12:50;;;;;;;12.40;6.50;;;;;;;2.07;100.00;99923.94;106038;1285;58982;-71
2022/12/28 01:15:16;;;;;;;11.60;6.30;;;;;;;2.02;100.00;99918.94;106069;1288;59274;-71
2022/12/28 01:17:42;;;;;;;11.60;8.20;;;;;;;1.96;100.00;99919.21;105869;1289;58993;-71
2022/12/28 01:20:08;;;;;;;12.70;8.60;;;;;;;1.88;100.00;99917.43;105705;1288;60014;-71
2022/12/28 01:22:35;;;;;;;12.30;9.60;;;;;;;1.80;100.00;99915.80;106094;1288;58967;-72
2022/12/28 01:25:01;;;;;;;15.50;9.30;;;;;;;1.72;100.00;99911.73;106059;1288;59114;-71
2022/12/28 01:27:27;;;;;;;12.60;9.10;;;;;;;1.64;100.00;99910.48;106089;1288;58910;-71
2022/12/28 01:29:53;;;;;;;9.20;8.30;;;;;;;1.55;100.00;99907.44;106070;1282;58993;-71
2022/12/28 01:32:19;;;;;;;12.90;7.80;;;;;;;1.47;100.00;99914.39;106074;1288;59065;-71
2022/12/28 01:34:45;;;;;;;12.80;8.70;;;;;;;1.39;100.00;99916.80;106121;1288;59751;-71
2022/12/28 01:37:12;;;;;;;11.00;8.10;;;;;;;1.31;100.00;99916.02;106069;1281;58888;-71
2022/12/28 01:39:38;;;;;;;12.10;8.10;;;;;;;1.24;100.00;99913.50;106090;1282;58914;-71
2022/12/28 01:42:04;;;;;;;12.50;8.40;;;;;;;1.18;100.00;99906.61;106050;1281;59287;-71
2022/12/28 01:44:40;;;;;;;14.10;9.20;;;;;;;1.12;100.00;99907.89;106070;1288;59284;-71
2022/12/28 01:47:10;;;;;;;15.10;9.30;;;;;;;1.06;100.00;99905.71;106067;1289;63918;-71
2022/12/28 01:49:42;;;;;;;10.70;8.40;;;;;;;1.00;100.00;99912.61;106066;1281;58872;-71
2022/12/28 01:52:27;;;;;;;13.00;10.10;;;;;;;0.93;100.00;99912.52;106040;1289;58792;-71
2022/12/28 01:54:57;;;;;;;13.30;9.80;;;;;;;0.87;100.00;99911.91;106068;1288;67096;-71
2022/12/28 01:57:27;;;;;;;16.10;9.70;;;;;;;0.80;100.00;99906.40;106076;1288;69417;-70
2022/12/28 02:00:03;;;;;;;12.80;9.10;;;;;;;0.75;100.00;99901.91;106056;1288;65255;-70
2022/12/28 02:02:30;;;;;;;16.40;10.10;;;;;;;0.68;100.00;99906.90;106051;1289;58928;-71
2022/12/28 02:04:58;;;;;;;14.30;8.90;;;;;;;0.63;100.00;99906.08;106058;1287;58961;-71
2022/12/28 02:07:49;;;;;;;10.90;8.50;;;;;;;0.59;100.00;99904.02;106089;1288;66764;-71
2022/12/28 02:10:18;;;;;;;14.20;9.60;;;;;;;0.56;100.00;99893.92;106073;1288;60947;-71
2022/12/28 02:12:45;;;;;;;12.90;8.50;;;;;;;0.52;100.00;99888.03;106059;1288;64821;-71
2022/12/28 02:15:12;;;;;;;12.70;7.60;;;;;;;0.48;100.00;99885.98;106051;1272;58903;-71
2022/12/28 02:17:38;;;;;;;11.00;7.50;;;;;;;0.44;100.00;99881.14;106084;1288;58842;-71
2022/12/28 02:20:05;;;;;;;11.80;8.20;;;;;;;0.40;100.00;99884.15;106058;1289;59043;-71
2022/12/28 02:23:17;;;;;;;12.50;7.40;;;;;;;0.35;100.00;99879.48;106064;1288;59644;-71
2022/12/28 02:26:01;;;;;;;;;;;;;;;0.28;100.00;99877.65;106057;1289;64155;-72
2022/12/28 02:28:54;;;;;;;14.40;8.70;;;;;;;0.20;100.00;99880.52;106063;1281;58894;-71
2022/12/28 02:31:30;;;;;;;12.80;8.80;;;;;;;0.14;100.00;99874.13;106067;1288;58904;-72
2022/12/28 02:34:09;;;;;;;11.60;8.50;;;;;;;0.09;100.00;99868.41;106076;1288;65977;-71
2022/12/28 02:36:41;;;;;;;12.60;8.60;;;;;;;0.06;100.00;99862.68;106062;1288;60433;-71
2022/12/28 02:39:15;;;;;;;10.20;8.00;;;;;;;0.02;100.00;99856.60;106058;1291;64759;-70
2022/12/28 02:41:43;;;;;;;14.40;8.90;;;;;;;-0.02;100.00;99846.34;106064;1287;59206;-70
2022/12/28 02:44:10;;;;;;;12.30;10.10;;;;;;;-0.06;100.00;99841.66;106064;1287;58877;-71
2022/12/28 02:52:31;;;;;;;17.90;13.90;;;;;;;-0.23;100.00;99842.00;106049;1289;65431;-71
2022/12/28 02:57:54;;;;;;;17.40;12.70;;;;;;;-0.34;100.00;99836.86;106075;1288;59240;-70
2022/12/28 03:01:18;;;;;;;16.00;13.30;;;;;;;-0.38;100.00;99832.19;106064;1288;59103;-70
2022/12/28 03:04:08;;;;;;;14.70;12.50;;;;;;;-0.43;100.00;99829.27;105532;1296;61433;-71
2022/12/28 03:09:48;;;;;;;16.80;12.70;;;;;;;-0.54;100.00;99828.83;105445;1298;58987;-71
2022/12/28 03:12:27;;;;;;;15.20;13.40;;;;;;;-0.59;100.00;99819.45;105315;1300;60488;-70
2022/12/28 03:15:02;;;;;;;14.20;12.30;;;;;;;-0.65;100.00;99815.31;105539;1293;65910;-70
2022/12/28 03:31:31;;;;;;;35.00;22.20;;;;;;;-0.86;100.00;99816.87;105534;1298;59859;-70
2022/12/28 03:34:05;;;;;;;30.60;19.10;;;;;;;-0.88;100.00;99821.77;105599;1300;65112;-71
2022/12/28 03:36:56;;;;;;;30.20;18.70;;;;;;;-0.91;100.00;99825.11;106038;1289;58858;-71
2022/12/28 03:39:37;;;;;;;30.70;18.30;;;;;;;-0.93;100.00;99826.87;106068;1282;59008;-71
2022/12/28 03:45:31;;;;;;;32.30;20.00;;;;;;;-0.98;100.00;99827.25;106086;1282;60875;-71
2022/12/28 03:47:59;;;;;;;40.50;24.70;;;;;;;-1.02;100.00;99819.77;105397;1297;65046;-71
2022/12/28 03:50:26;;;;;;;50.20;27.40;;;;;;;-1.05;100.00;99814.21;105388;1297;59077;-70
2022/12/28 03:52:52;;;;;;;41.40;25.00;;;;;;;-1.07;100.00;99809.35;105409;1299;59084;-70
2022/12/28 03:55:18;;;;;;;36.00;22.30;;;;;;;-1.10;100.00;99802.40;105051;1293;59310;-70
2022/12/28 03:57:44;;;;;;;32.70;19.20;;;;;;;-1.12;100.00;99803.80;105403;1297;59265;-70
2022/12/28 04:00:11;;;;;;;31.50;20.70;;;;;;;-1.17;100.00;99802.96;105432;1298;59021;-70
2022/12/28 04:02:37;;;;;;;35.30;20.30;;;;;;;-1.19;100.00;99804.89;105392;1297;59077;-70
2022/12/28 04:05:05;;;;;;;31.00;19.70;;;;;;;-1.23;100.00;99796.90;105414;1297;59417;-70
2022/12/28 04:07:31;;;;;;;30.70;20.50;;;;;;;-1.26;100.00;99794.48;105392;1299;65849;-69
2022/12/28 04:09:57;;;;;;;29.80;20.90;;;;;;;-1.28;100.00;99792.74;105441;1297;59318;-70
2022/12/28 04:12:23;;;;;;;27.10;19.30;;;;;;;-1.30;100.00;99793.63;105431;1291;59021;-71
2022/12/28 04:14:49;;;;;;;30.90;21.50;;;;;;;-1.33;100.00;99786.50;105402;1297;59080;-71
2022/12/28 04:17:15;;;;;;;48.60;29.80;;;;;;;-1.35;100.00;99783.03;105385;1290;58942;-71
2022/12/28 04:19:41;;;;;;;33.80;23.20;;;;;;;-1.36;100.00;99775.71;105418;1297;58976;-70
2022/12/28 04:22:07;;;;;;;44.30;27.80;;;;;;;-1.39;100.00;99779.04;105270;1302;58945;-70
2022/12/28 04:24:33;;;;;;;51.40;33.00;;;;;;;-1.41;100.00;99775.75;105854;1288;58839;-70
2022/12/28 04:26:59;;;;;;;45.00;29.30;;;;;;;-1.44;100.00;99769.14;106102;1288;59274;-71
2022/12/28 04:29:26;;;;;;;41.00;27.90;;;;;;;-1.45;100.00;99767.23;105330;1289;1002321;-71
2022/12/28 04:31:52;;;;;;;41.70;28.20;;;;;;;-1.46;100.00;99766.88;106083;1289;58955;-71
2022/12/28 04:34:18;;;;;;;40.80;28.70;;;;;;;-1.47;100.00;99762.89;105693;1293;59148;-71
2022/12/28 04:36:45;;;;;;;41.80;26.70;;;;;;;-1.49;100.00;99759.92;106047;1283;58976;-71
2022/12/28 04:39:12;;;;;;;32.50;23.50;;;;;;;-1.51;100.00;99762.55;105855;1284;58791;-71
2022/12/28 04:41:38;;;;;;;28.50;19.10;;;;;;;-1.52;100.00;99757.16;106071;1282;58920;-71
2022/12/28 04:44:05;;;;;;;23.00;17.20;;;;;;;-1.53;100.00;99759.25;106061;1288;60926;-71
2022/12/28 04:46:31;;;;;;;25.00;17.30;;;;;;;-1.53;100.00;99758.39;106054;1289;59332;-71
2022/12/28 04:48:58;;;;;;;19.80;15.30;;;;;;;-1.54;100.00;99759.44;106076;1295;58951;-71
2022/12/28 04:51:27;;;;;;;25.90;16.20;;;;;;;-1.55;100.00;99752.81;106066;1281;58826;-71
2022/12/28 04:53:54;;;;;;;19.40;14.10;;;;;;;-1.56;100.00;99750.91;106071;1288;73197;-71
2022/12/28 04:56:22;;;;;;;15.60;11.50;;;;;;;-1.56;100.00;99751.25;106047;1287;59846;-71
2022/12/28 04:58:53;;;;;;;17.00;13.10;;;;;;;-1.56;100.00;99751.77;105860;1288;64856;-71
2022/12/28 05:01:19;;;;;;;17.90;12.20;;;;;;;-1.56;100.00;99745.84;106070;1285;58947;-71
2022/12/28 05:03:46;;;;;;;15.50;12.30;;;;;;;-1.57;100.00;99745.52;106079;1273;58896;-71
2022/12/28 05:06:16;;;;;;;14.60;11.30;;;;;;;-1.57;100.00;99742.21;106052;1288;66841;-71
2022/12/28 05:08:43;;;;;;;10.90;8.90;;;;;;;-1.58;100.00;99741.51;106073;1289;59940;-72
2022/12/28 05:11:15;;;;;;;13.80;8.30;;;;;;;-1.58;100.00;99743.60;105857;1289;64648;-70
2022/12/28 05:13:41;;;;;;;12.20;8.70;;;;;;;-1.58;100.00;99740.83;106076;1282;59034;-71
2022/12/28 05:16:10;;;;;;;12.90;8.70;;;;;;;-1.57;100.00;99734.70;105780;1295;58949;-71
2022/12/28 05:18:37;;;;;;;13.20;8.30;;;;;;;-1.56;100.00;99727.55;105886;1297;66059;-71
2022/12/28 05:21:06;;;;;;;14.70;7.50;;;;;;;-1.55;100.00;99726.52;106068;1288;60978;-71
2022/12/28 05:23:34;;;;;;;10.30;7.80;;;;;;;-1.55;100.00;99727.39;106061;1288;64500;-71
2022/12/28 05:26:00;;;;;;;13.50;7.80;;;;;;;-1.54;100.00;99724.95;106071;1288;59187;-71
2022/12/28 05:28:27;;;;;;;9.50;6.30;;;;;;;-1.54;100.00;99724.58;105533;1288;60599;-70
2022/12/28 05:31:01;;;;;;;11.80;8.30;;;;;;;-1.54;100.00;99718.30;106080;1287;66943;-70
2022/12/28 05:33:30;;;;;;;15.40;9.00;;;;;;;-1.53;100.00;99717.09;106058;1292;60900;-71
2022/12/28 05:36:02;;;;;;;11.80;9.00;;;;;;;-1.53;100.00;99716.05;106046;1288;64998;-70
2022/12/28 05:38:28;;;;;;;14.20;10.40;;;;;;;-1.54;100.00;99719.70;106060;1295;58882;-70
2022/12/28 05:40:54;;;;;;;14.00;9.60;;;;;;;-1.55;100.00;99717.80;106055;1289;59044;-70
2022/12/28 05:43:21;;;;;;;15.20;10.00;;;;;;;-1.55;100.00;99714.84;105949;1289;136892;-70
2022/12/28 05:45:47;;;;;;;16.90;10.40;;;;;;;-1.56;100.00;99708.91;106068;1295;59087;-71
2022/12/28 05:48:13;;;;;;;15.20;11.10;;;;;;;-1.56;100.00;99708.04;106053;1287;59023;-70
2022/12/28 05:50:39;;;;;;;16.20;10.70;;;;;;;-1.56;100.00;99707.86;106067;1291;58895;-70
2022/12/28 05:53:06;;;;;;;15.60;10.20;;;;;;;-1.56;100.00;99703.34;106087;1289;59942;-70
2022/12/28 05:55:32;;;;;;;14.70;10.60;;;;;;;-1.57;100.00;99703.18;106059;1287;59125;-70
2022/12/28 05:57:58;;;;;;;19.90;10.40;;;;;;;-1.57;100.00;99701.61;105708;1289;59075;-71
2022/12/28 06:00:24;;;;;;;14.30;10.20;;;;;;;-1.57;100.00;99700.05;106061;1295;58928;-72
2022/12/28 06:02:50;;;;;;;13.30;9.90;;;;;;;-1.57;100.00;99703.88;106043;1287;58913;-71
2022/12/28 06:05:16;;;;;;;14.30;10.30;;;;;;;-1.57;100.00;99702.13;106078;1288;58872;-71
2022/12/28 06:07:42;;;;;;;13.30;8.70;;;;;;;-1.56;100.00;99702.48;106095;1289;58910;-71
2022/12/28 06:10:09;;;;;;;15.90;8.80;;;;;;;-1.55;100.00;99699.85;105890;1281;72000;-71
2022/12/28 06:12:35;;;;;;;12.40;8.00;;;;;;;-1.54;100.00;99695.48;106062;1294;59042;-71
2022/12/28 06:15:06;;;;;;;11.10;6.50;;;;;;;-1.52;100.00;99690.60;106076;1289;58930;-71
2022/12/28 06:17:32;;;;;;;13.10;7.10;;;;;;;-1.52;100.00;99685.02;105669;1301;64726;-70
2022/12/28 06:19:58;;;;;;;9.70;6.50;;;;;;;-1.50;100.00;99682.57;106060;1289;59054;-70
2022/12/28 06:22:24;;;;;;;10.60;6.80;;;;;;;-1.48;100.00;99684.82;106070;1279;59819;-71
2022/12/28 06:24:50;;;;;;;14.10;6.90;;;;;;;-1.47;100.00;99684.64;106056;1289;58876;-71
2022/12/28 06:27:16;;;;;;;11.90;6.30;;;;;;;-1.46;100.00;99681.66;106054;1289;59572;-70
2022/12/28 06:29:42;;;;;;;9.90;5.80;;;;;;;-1.44;100.00;99680.78;106055;1287;58872;-71
2022/12/28 06:32:08;;;;;;;9.90;5.80;;;;;;;-1.43;100.00;99679.02;106068;1288;58975;-71
2022/12/28 06:34:34;;;;;;;9.20;6.50;;;;;;;-1.41;100.00;99675.35;106074;1288;58830;-71
2022/12/28 06:37:00;;;;;;;11.70;6.50;;;;;;;-1.39;100.00;99672.20;106073;1289;58954;-71
2022/12/28 06:39:26;;;;;;;10.90;6.80;;;;;;;-1.37;100.00;99672.02;106064;1288;65796;-71
2022/12/28 06:41:52;;;;;;;9.10;6.80;;;;;;;-1.35;100.00;99669.91;106063;1287;59005;-71
2022/12/28 06:44:18;;;;;;;13.80;7.90;;;;;;;-1.34;100.00;99665.19;106037;1289;59100;-71
2022/12/28 06:46:44;;;;;;;9.70;7.60;;;;;;;-1.31;100.00;99665.16;106062;1289;58939;-71
2022/12/28 06:49:10;;;;;;;11.30;7.30;;;;;;;-1.30;100.00;99660.44;106062;1289;58922;-71
2022/12/28 06:51:40;;;;;;;12.50;9.10;;;;;;;-1.29;100.00;99659.23;105319;1287;1002429;-71
2022/12/28 06:54:07;;;;;;;15.40;8.80;;;;;;;-1.26;100.00;99657.46;106061;1288;59545;-71
2022/12/28 06:56:35;;;;;;;14.20;8.50;;;;;;;-1.24;100.00;99657.77;106044;1289;65129;-71
2022/12/28 06:59:01;;;;;;;14.40;8.60;;;;;;;-1.22;100.00;99658.98;106047;1287;58922;-69
2022/12/28 07:01:43;;;;;;;15.60;9.50;;;;;;;-1.19;100.00;99660.00;106088;1288;58884;-71
2022/12/28 07:04:09;;;;;;;13.10;9.30;;;;;;;-1.14;100.00;99661.52;106078;1295;64430;-71
2022/12/28 07:06:41;;;;;;;13.20;10.00;;;;;;;-1.08;100.00;99655.55;106086;1289;59069;-72
2022/12/28 07:09:12;;;;;;;15.00;10.80;;;;;;;-1.03;100.00;99650.62;106067;1288;63947;-71
2022/12/28 07:11:38;;;;;;;19.00;12.30;;;;;;;-0.96;100.00;99650.56;106065;1289;59106;-71
2022/12/28 07:14:04;;;;;;;17.20;12.40;;;;;;;-0.90;100.00;99649.98;106071;1289;59075;-71
2022/12/28 07:16:31;;;;;;;16.30;13.00;;;;;;;-0.84;100.00;99650.44;106072;1289;67195;-71
2022/12/28 07:18:59;;;;;;;15.90;12.30;;;;;;;-0.79;100.00;99649.51;106063;1295;59757;-71
2022/12/28 07:21:43;;;;;;;15.80;13.80;;;;;;;-0.72;100.00;99652.41;106033;1294;64980;-72
2022/12/28 07:24:09;;;;;;;15.50;11.60;;;;;;;-0.64;100.00;99650.23;105793;1294;58921;-70
2022/12/28 07:26:36;;;;;;;14.10;12.50;;;;;;;-0.56;100.00;99647.52;106072;1288;59302;-71
2022/12/28 07:29:04;;;;;;;16.40;13.30;;;;;;;-0.51;100.00;99644.14;106045;1288;67168;-71
2022/12/28 07:31:34;;;;;;;20.50;16.60;;;;;;;-0.44;100.00;99641.45;106013;1285;69306;-71
2022/12/28 07:34:00;;;;;;;18.00;15.70;;;;;;;-0.37;100.00;99638.91;106055;1291;64829;-71
2022/12/28 07:36:28;;;;;;;29.90;23.30;;;;;;;-0.30;100.00;99643.20;106070;1289;58940;-78
2022/12/28 07:38:55;;;;;;;27.00;21.50;;;;;;;-0.23;100.00;99641.70;105872;1292;59118;-77
2022/12/28 07:41:24;;;;;;;27.40;24.40;;;;;;;-0.16;100.00;99644.05;105575;1291;65973;-79
2022/12/28 07:43:51;;;;;;;27.20;22.50;;;;;;;-0.09;100.00;99638.02;105636;1295;58835;-78
2022/12/28 07:46:20;;;;;;;24.20;20.70;;;;;;;-0.03;100.00;99637.23;105625;1295;59130;-79
2022/12/28 07:48:46;;;;;;;29.00;22.00;;;;;;;0.04;100.00;99637.84;105611;1300;59321;-86
2022/12/28 07:51:25;;;;;;;29.10;21.40;;;;;;;0.11;100.00;99642.82;105601;1294;58839;-77
2022/12/28 07:53:53;;;;;;;36.40;25.80;;;;;;;0.17;100.00;99643.25;105401;1298;65980;-78
2022/12/28 07:56:20;;;;;;;34.40;24.10;;;;;;;0.25;100.00;99640.88;105589;1288;60895;-75
2022/12/28 07:58:48;;;;;;;35.90;25.80;;;;;;;0.32;100.00;99639.55;105555;1287;63844;-78
2022/12/28 08:01:16;;;;;;;30.80;22.40;;;;;;;0.40;100.00;99634.53;105615;1293;59183;-79
2022/12/28 08:03:42;;;;;;;32.90;24.80;;;;;;;0.48;100.00;99632.14;105645;1293;58991;-79
2022/12/28 08:06:12;;;;;;;34.30;25.00;;;;;;;0.56;100.00;99632.53;105614;1296;66864;-78
2022/12/28 08:08:43;;;;;;;46.20;30.40;;;;;;;0.65;100.00;99631.17;105627;1294;60901;-73
2022/12/28 08:11:18;;;;;;;36.10;27.30;;;;;;;0.74;100.00;99627.01;105392;1303;64424;-72
2022/12/28 08:13:46;;;;;;;40.90;30.60;;;;;;;0.82;100.00;99625.63;105916;1290;59241;-71
2022/12/28 08:16:14;;;;;;;40.50;28.70;;;;;;;0.93;100.00;99618.80;105987;1288;58858;-73
2022/12/28 08:18:41;;;;;;;33.80;25.10;;;;;;;1.03;100.00;99613.00;105682;1293;65958;-72
2022/12/28 08:21:11;;;;;;;38.20;26.60;;;;;;;1.16;100.00;99613.11;105979;1292;59933;-71
2022/12/28 08:23:37;;;;;;;32.90;24.90;;;;;;;1.29;100.00;99610.23;105241;1282;1002538;-72
2022/12/28 08:26:26;;;;;;;32.30;24.70;;;;;;;1.39;100.00;99614.08;105972;1284;59044;-72
2022/12/28 08:28:54;;;;;;;32.90;25.00;;;;;;;1.48;100.00;99611.45;105979;1292;58994;-73
2022/12/28 08:31:30;;;;;;;33.00;24.60;;;;;;;1.58;100.00;99605.29;105971;1291;66858;-73
2022/12/28 08:33:58;;;;;;;42.40;29.50;;;;;;;1.69;100.00;99602.27;105245;1291;1003134;-72
2022/12/28 08:36:25;;;;;;;40.70;29.40;;;;;;;1.79;100.00;99603.80;105964;1287;65025;-72
2022/12/28 08:38:52;;;;;;;34.80;26.70;;;;;;;1.89;100.00;99608.14;105986;1292;59036;-72
2022/12/28 08:41:20;;;;;;;41.10;29.40;;;;;;;2.02;100.00;99612.59;105998;1292;58746;-72
2022/12/28 08:43:50;;;;;;;39.20;31.70;;;;;;;2.14;100.00;99607.95;105853;1284;66867;-72
2022/12/28 08:46:21;;;;;;;42.80;32.80;;;;;;;2.27;100.00;99612.02;105985;1291;60969;-71
2022/12/28 08:48:49;;;;;;;40.30;30.30;;;;;;;2.42;100.00;99616.77;105982;1292;64287;-71
2022/12/28 08:51:31;;;;;;;38.50;29.30;;;;;;;2.57;100.00;99612.17;105848;1292;59080;-72
2022/12/28 08:53:58;;;;;;;39.30;31.50;;;;;;;2.72;100.00;99614.08;105978;1287;59099;-71
2022/12/28 08:56:28;;;;;;;37.60;32.30;;;;;;;2.85;100.00;99609.71;105993;1289;65856;-72
2022/12/28 08:58:55;;;;;;;45.70;34.90;;;;;;;2.95;100.00;99605.77;105963;1290;60139;-72
2022/12/28 09:01:32;;;;;;;44.70;36.00;;;;;;;3.03;100.00;99604.33;105971;1287;64336;-72
2022/12/28 09:04:00;;;;;;;42.50;32.90;;;;;;;3.13;100.00;99601.27;105659;1293;59097;-73
2022/12/28 09:06:33;;;;;;;96.30;60.30;;;;;;;3.23;100.00;99597.14;106011;1292;58986;-73
2022/12/28 09:09:01;;;;;;;131.60;103.60;;;;;;;3.33;100.00;99593.15;106009;1289;66829;-73
2022/12/28 09:11:27;;;;;;;88.80;79.70;;;;;;;3.41;100.00;99586.10;105841;1291;61019;-73
2022/12/28 09:13:54;;;;;;;56.10;48.30;;;;;;;3.47;100.00;99583.84;105941;1287;59330;-73
2022/12/28 09:16:24;;;;;;;34.00;26.40;;;;;;;3.54;100.00;99584.51;105955;1280;58968;-73
2022/12/28 09:18:54;;;;;;;;;;;;;;;3.61;100.00;99581.83;105858;1283;58975;-72
2022/12/28 09:21:22;;;;;;;34.20;24.10;;;;;;;3.66;100.00;99587.48;105996;1287;74829;-73
2022/12/28 09:23:48;;;;;;;37.00;26.50;;;;;;;3.71;100.00;99588.72;106001;1292;59139;-73
2022/12/28 09:26:19;;;;;;;33.40;25.00;;;;;;;3.80;100.00;99588.48;105962;1282;58895;-73
2022/12/28 09:28:49;;;;;;;39.10;28.00;;;;;;;3.88;100.00;99591.23;105991;1292;58982;-73
2022/12/28 09:31:16;;;;;;;40.90;28.10;;;;;;;3.94;100.00;99592.96;105990;1284;58832;-72
2022/12/28 09:33:59;;;;;;;38.40;26.80;;;;;;;4.01;100.00;99599.61;106005;1287;67133;-73
2022/12/28 09:36:38;;;;;;;35.90;25.40;;;;;;;4.07;100.00;99599.77;105994;1292;61206;-72
2022/12/28 09:39:07;;;;;;;37.20;24.60;;;;;;;4.14;100.00;99595.52;105968;1298;64982;-72
2022/12/28 09:41:41;;;;;;;34.10;22.20;;;;;;;4.20;100.00;99592.52;105575;1304;59038;-71
2022/12/28 09:44:15;;;;;;;34.40;21.70;;;;;;;4.25;100.00;99590.98;105954;1292;58988;-71
2022/12/28 09:46:50;;;;;;;32.50;22.00;;;;;;;4.28;100.00;99591.73;105973;1289;67825;-72
2022/12/28 09:49:18;;;;;;;32.10;20.70;;;;;;;4.30;100.00;99589.40;105972;1289;60795;-71
2022/12/28 09:52:13;;;;;;;31.30;19.90;;;;;;;4.28;100.00;99592.83;105984;1282;64999;-72
2022/12/28 09:54:40;;;;;;;34.30;20.80;;;;;;;4.27;100.00;99591.42;105427;1298;59025;-72
2022/12/28 09:57:15;;;;;;;30.60;19.50;;;;;;;4.28;100.00;99583.64;105431;1297;59037;-72
2022/12/28 09:59:43;;;;;;;27.60;18.10;;;;;;;4.30;100.00;99581.51;105423;1299;67392;-72
2022/12/28 10:02:26;;;;;;;19.70;11.70;;;;;;;4.30;100.00;99583.77;105290;1291;60007;-72
2022/12/28 10:04:52;;;;;;;16.00;9.10;;;;;;;4.32;100.00;99581.61;105427;1297;65052;-72
2022/12/28 10:07:19;;;;;;;11.20;7.60;;;;;;;4.35;100.00;99580.98;105414;1296;58948;-72
2022/12/28 10:09:46;;;;;;;11.60;7.30;;;;;;;4.39;100.00;99579.80;105473;1303;59440;-72
2022/12/28 10:12:15;;;;;;;11.90;7.10;;;;;;;4.43;100.00;99580.19;105380;1295;67017;-72
2022/12/28 10:14:44;;;;;;;20.90;9.90;;;;;;;4.49;100.00;99575.95;105446;1296;59975;-72
2022/12/28 10:17:13;;;;;;;19.70;9.50;;;;;;;4.54;100.00;99571.03;105438;1297;64025;-72
2022/12/28 10:19:43;;;;;;;15.80;8.00;;;;;;;4.58;100.00;99567.02;105365;1299;59128;-72
2022/12/28 10:22:18;;;;;;;14.80;8.40;;;;;;;4.61;100.00;99562.86;105456;1304;58842;-71
2022/12/28 10:24:46;;;;;;;13.90;7.10;;;;;;;4.64;100.00;99561.02;105432;1289;65746;-72
2022/12/28 10:27:28;;;;;;;13.20;7.10;;;;;;;4.65;100.00;99557.30;105443;1292;61129;-72
2022/12/28 10:29:54;;;;;;;15.40;8.30;;;;;;;4.69;100.00;99554.90;105429;1290;64000;-73
2022/12/28 10:32:21;;;;;;;11.00;6.40;;;;;;;4.70;100.00;99547.45;105491;1293;59079;-72
2022/12/28 10:34:57;;;;;;;15.20;7.80;;;;;;;4.73;100.00;99545.55;105983;1291;59082;-71
2022/12/28 10:37:28;;;;;;;12.90;6.30;;;;;;;4.79;100.00;99548.02;105713;1294;66945;-72
2022/12/28 10:39:58;;;;;;;11.00;6.30;;;;;;;4.83;100.00;99541.00;105975;1291;60999;-72
2022/12/28 10:42:28;;;;;;;;;;;;;;;4.88;100.00;99533.27;106009;1287;63938;-72
2022/12/28 10:45:05;;;;;;;18.00;8.00;;;;;;;4.92;100.00;99524.16;105977;1291;58992;-71
2022/12/28 10:47:40;;;;;;;18.00;9.00;;;;;;;4.96;100.00;99513.27;105984;1289;59099;-72
2022/12/28 10:50:39;;;;;;;11.00;6.90;;;;;;;5.01;100.00;99501.10;105977;1291;74864;-72
2022/12/28 10:53:15;;;;;;;13.20;7.50;;;;;;;5.07;100.00;99492.08;105933;1284;59647;-71
2022/12/28 10:55:41;;;;;;;8.90;6.30;;;;;;;5.15;100.00;99488.63;105684;1300;63718;-72
2022/12/28 10:58:15;;;;;;;10.80;5.90;;;;;;;5.21;100.00;99482.02;105610;1287;58892;-72
2022/12/28 11:00:42;;;;;;;8.60;5.60;;;;;;;5.29;100.00;99477.70;105958;1291;58909;-72
2022/12/28 11:03:22;;;;;;;8.60;5.00;;;;;;;5.35;100.00;99473.25;105636;1292;64710;-72
2022/12/28 11:05:48;;;;;;;7.30;3.90;;;;;;;5.41;100.00;99462.27;105990;1291;61085;-73
2022/12/28 11:08:15;;;;;;;8.00;4.10;;;;;;;5.46;100.00;99454.70;105983;1284;64886;-73
2022/12/28 11:10:42;;;;;;;9.20;4.90;;;;;;;5.51;100.00;99451.14;105979;1292;58983;-72
2022/12/28 11:13:18;;;;;;;7.80;4.60;;;;;;;5.57;100.00;99450.75;105978;1291;59324;-72
2022/12/28 11:15:46;;;;;;;10.30;4.50;;;;;;;5.62;100.00;99445.41;105621;1294;66282;-72
2022/12/28 11:18:16;;;;;;;6.80;4.50;;;;;;;5.70;100.00;99442.46;105952;1288;60817;-72
2022/12/28 11:20:45;;;;;;;5.60;4.00;;;;;;;5.81;100.00;99439.05;105655;1288;65041;-73
2022/12/28 11:23:20;;;;;;;10.30;4.80;;;;;;;5.91;100.00;99438.09;105962;1292;59048;-72
2022/12/28 11:25:47;;;;;;;10.30;4.20;;;;;;;6.04;100.00;99425.58;105973;1284;58949;-72
2022/12/28 11:28:16;;;;;;;8.20;3.60;;;;;;;6.22;100.00;99421.30;105970;1284;65806;-72
2022/12/28 11:30:44;;;;;;;5.70;3.80;;;;;;;6.44;100.00;99420.89;105986;1282;59751;-72
2022/12/28 11:33:43;;;;;;;5.60;3.60;;;;;;;6.61;100.00;99413.80;106000;1282;63744;-72
2022/12/28 11:36:18;;;;;;;8.40;5.00;;;;;;;6.68;100.00;99404.48;105972;1288;59159;-72
2022/12/28 11:38:48;;;;;;;6.90;4.00;;;;;;;6.76;100.00;99403.60;105996;1282;58925;-71
2022/12/28 11:41:23;;;;;;;6.20;4.30;;;;;;;6.90;100.00;99402.60;106003;1282;67058;-72
2022/12/28 11:43:54;;;;;;;9.00;4.60;;;;;;;7.08;100.00;99396.19;105983;1290;60095;-71
2022/12/28 11:46:21;;;;;;;6.00;3.90;;;;;;;7.22;100.00;99385.45;105957;1282;64978;-72
2022/12/28 11:48:59;;;;;;;5.20;3.90;;;;;;;7.33;100.00;99376.94;105966;1288;58907;-72
2022/12/28 11:51:33;;;;;;;5.60;3.40;;;;;;;7.45;100.00;99373.17;105984;1275;59141;-73
2022/12/28 11:54:22;;;;;;;8.30;3.50;;;;;;;7.54;100.00;99366.91;105834;1291;72912;-72